INDIA METEOROLOGICAL DEPARTMENT, R.M.C. NEW DELHI
Dated:1 - 4 - 2020
METARS OF ALTERNATE AIRPORTS
Delhi      
VIDP 312200Z 00000KT 3000 BR FEW030 SCT100 19/16 Q1009 NOSIG=
Lucknow    
VILK 312200Z 26003KT 4000 HZ SCT020 BKN100 21/14 Q1009 NOSIG=
Ahmedabad  
VAAH 312200Z 30003KT 4000 FU NSC 25/13 Q1010 NOSIG=
Mumbai     
VABB 312200Z 00000KT 4000 HZ NSC 26/23 Q1010 NOSIG=